Time;durP1;ratioP1;P1;durP2;ratioP2;P2;SDS_P1;SDS_P2;PMS_P1;PMS_P2;Temp;Humidity;BMP_temperature;BMP_pressure;BME280_temperature;BME280_humidity;BME280_pressure;Samples;Min_cycle;Max_cycle;Signal;HPM_P1;HPM_P2
2023/10/07 00:01:27;;;;;;;10.70;4.80;;;;;;;9.67;53.67;100880.44;105517;1256;61410;-61
2023/10/07 00:03:58;;;;;;;7.70;2.30;;;;;;;9.66;53.70;100874.55;105518;1259;63780;-59
2023/10/07 00:06:27;;;;;;;4.60;1.50;;;;;;;9.66;53.69;100873.89;105470;1257;59657;-62
2023/10/07 00:08:58;;;;;;;11.60;5.40;;;;;;;9.63;53.69;100876.69;106397;1256;59647;-60
2023/10/07 00:11:27;;;;;;;4.80;1.70;;;;;;;9.61;53.81;100878.92;105374;1259;64170;-61
2023/10/07 00:13:55;;;;;;;5.20;1.80;;;;;;;9.60;53.92;100872.48;105634;1253;61316;-60
2023/10/07 00:16:23;;;;;;;9.20;5.00;;;;;;;9.59;54.04;100864.74;105607;1256;62714;-61
2023/10/07 00:18:54;;;;;;;10.10;3.40;;;;;;;9.59;54.07;100858.23;105649;1256;59785;-62
2023/10/07 00:21:39;;;;;;;10.00;4.70;;;;;;;9.65;54.02;100842.60;105542;1256;59571;-61
2023/10/07 00:24:07;;;;;;;4.90;2.10;;;;;;;9.75;53.90;100837.89;105994;1258;64123;-61
2023/10/07 00:26:36;;;;;;;8.40;2.50;;;;;;;9.80;53.73;100832.46;106259;1256;61533;-62
2023/10/07 00:29:04;;;;;;;10.60;5.00;;;;;;;9.78;53.63;100826.60;105421;1253;63855;-62
2023/10/07 00:31:33;;;;;;;5.20;1.70;;;;;;;9.77;53.64;100825.47;105546;1256;59716;-62
2023/10/07 00:34:03;;;;;;;11.40;4.50;;;;;;;9.75;53.63;100822.62;106182;1256;59593;-62
2023/10/07 00:39:07;;;;;;;9.30;4.50;;;;;;;9.72;53.73;100813.21;105432;1254;60911;-62
2023/10/07 00:41:50;;;;;;;9.30;3.00;;;;;;;9.71;53.79;100812.71;106252;1256;62472;-60
2023/10/07 00:46:55;;;;;;;5.30;2.50;;;;;;;9.69;53.87;100797.98;105541;1253;60354;-60
2023/10/07 00:49:27;;;;;;;12.10;4.80;;;;;;;9.67;53.87;100791.96;105728;1256;66765;-60
2023/10/07 00:51:56;;;;;;;7.30;2.00;;;;;;;9.64;53.89;100785.86;106477;1256;61520;-60
2023/10/07 00:57:10;;;;;;;4.30;1.80;;;;;;;9.61;53.88;100779.80;105621;1256;60869;-61
2023/10/07 00:59:42;;;;;;;4.30;1.60;;;;;;;9.60;53.97;100781.44;105990;1257;60368;-62
2023/10/07 01:02:17;;;;;;;12.10;4.90;;;;;;;9.58;54.09;100778.98;105977;1256;64997;-60
2023/10/07 01:04:45;;;;;;;7.30;2.60;;;;;;;9.55;54.10;100776.20;105951;1255;60465;-60
2023/10/07 01:07:18;;;;;;;5.00;2.50;;;;;;;9.51;54.18;100774.52;105933;1257;62575;-62
2023/10/07 01:12:39;;;;;;;7.90;2.60;;;;;;;9.48;54.40;100762.30;106092;1256;60499;-64
2023/10/07 01:17:47;;;;;;;12.40;4.10;;;;;;;9.61;54.23;100756.86;105481;1256;61368;-61
2023/10/07 01:20:15;;;;;;;5.20;2.70;;;;;;;9.67;54.26;100753.64;105821;1257;63750;-61
2023/10/07 01:23:01;;;;;;;11.50;4.70;;;;;;;9.72;54.28;100753.83;106000;1256;61052;-60
2023/10/07 01:25:31;;;;;;;6.00;1.70;;;;;;;9.76;54.12;100749.70;105405;1251;60654;-60
2023/10/07 01:28:01;;;;;;;5.60;1.70;;;;;;;9.76;54.13;100743.89;105609;1259;64948;-60
2023/10/07 01:30:30;;;;;;;13.70;4.80;;;;;;;9.75;54.16;100734.31;105435;1256;61346;-61
2023/10/07 01:33:02;;;;;;;10.50;3.20;;;;;;;9.75;54.19;100723.84;105515;1258;63897;-62
2023/10/07 01:35:37;;;;;;;9.30;4.30;;;;;;;9.74;54.30;100714.77;105637;1256;60461;-61
2023/10/07 01:38:08;;;;;;;5.40;2.10;;;;;;;9.73;54.32;100711.70;106180;1251;60618;-60
2023/10/07 01:40:55;;;;;;;7.40;4.40;;;;;;;9.72;54.38;100709.63;105876;1258;65338;-62
2023/10/07 01:43:24;;;;;;;4.60;1.60;;;;;;;9.73;54.50;100711.69;105540;1256;61993;-62
2023/10/07 01:45:53;;;;;;;11.30;5.30;;;;;;;9.73;54.57;100716.23;105691;1255;63776;-59
2023/10/07 01:48:21;;;;;;;8.00;2.20;;;;;;;9.73;54.56;100710.66;105506;1257;60385;-63
2023/10/07 01:50:52;;;;;;;8.70;4.20;;;;;;;9.72;54.74;100707.77;105550;1257;60384;-63
2023/10/07 01:53:19;;;;;;;8.50;2.50;;;;;;;9.72;54.78;100699.29;105631;1258;63627;-61
2023/10/07 01:55:47;;;;;;;8.40;4.30;;;;;;;9.80;54.73;100690.52;105628;1256;61433;-60
2023/10/07 01:58:16;;;;;;;5.20;1.80;;;;;;;9.88;54.65;100678.89;105410;1257;63794;-58
2023/10/07 02:00:45;;;;;;;16.10;4.80;;;;;;;9.93;54.62;100668.94;105765;1257;60562;-60
2023/10/07 02:03:16;;;;;;;4.00;1.40;;;;;;;9.95;54.61;100650.89;105948;1256;60392;-59
2023/10/07 02:05:48;;;;;;;9.00;4.70;;;;;;;9.94;54.53;100633.98;105479;1257;65849;-59
2023/10/07 02:08:22;;;;;;;8.30;2.60;;;;;;;9.91;54.62;100627.20;105856;1256;60539;-62
2023/10/07 02:10:58;;;;;;;9.30;4.60;;;;;;;9.89;54.71;100628.88;105686;1251;62596;-60
2023/10/07 02:13:29;;;;;;;5.70;1.90;;;;;;;9.86;54.80;100628.02;105587;1256;60562;-60
2023/10/07 02:15:57;;;;;;;12.40;5.30;;;;;;;9.82;54.91;100623.64;106367;1257;60341;-58
2023/10/07 02:18:27;;;;;;;6.10;2.50;;;;;;;9.77;55.09;100618.57;105560;1256;64859;-61
2023/10/07 02:21:07;;;;;;;10.60;5.20;;;;;;;9.74;55.31;100617.22;105469;1257;61366;-60
2023/10/07 02:23:43;;;;;;;5.30;1.70;;;;;;;9.73;55.43;100617.10;106024;1256;63861;-60
2023/10/07 02:26:20;;;;;;;5.30;1.50;;;;;;;9.78;55.47;100616.02;105898;1256;60539;-61
2023/10/07 02:28:52;;;;;;;10.70;4.60;;;;;;;9.84;55.46;100626.25;105685;1257;60426;-62
2023/10/07 02:31:23;;;;;;;8.10;2.10;;;;;;;9.89;55.56;100630.29;105593;1257;63707;-61
2023/10/07 02:34:08;;;;;;;11.10;4.60;;;;;;;9.91;55.70;100625.64;105647;1257;61513;-62
2023/10/07 02:36:51;;;;;;;8.00;2.70;;;;;;;9.90;55.77;100621.64;106098;1251;62515;-61
2023/10/07 02:39:19;;;;;;;10.60;5.10;;;;;;;9.89;55.88;100616.13;105550;1258;60533;-62
2023/10/07 02:41:47;;;;;;;6.30;2.00;;;;;;;9.87;56.05;100606.80;105904;1251;60415;-59
2023/10/07 02:44:17;;;;;;;10.50;5.20;;;;;;;9.87;56.18;100602.77;105858;1253;64938;-61
2023/10/07 02:46:52;;;;;;;6.40;3.40;;;;;;;9.85;56.26;100603.39;105910;1257;61367;-62
2023/10/07 02:49:21;;;;;;;6.70;1.70;;;;;;;9.82;56.32;100592.09;105688;1256;62454;-60
2023/10/07 02:51:57;;;;;;;11.40;5.70;;;;;;;9.78;56.58;100587.47;105694;1257;60501;-60
2023/10/07 02:54:33;;;;;;;4.60;2.00;;;;;;;9.75;56.80;100582.25;105545;1253;61615;-60
2023/10/07 02:57:09;;;;;;;7.50;2.30;;;;;;;9.78;56.87;100581.89;106167;1257;64961;-59
2023/10/07 02:59:50;;;;;;;;;;;;;;;9.84;56.97;100577.73;106034;1251;61355;-60
2023/10/07 03:02:36;;;;;;;7.70;2.40;;;;;;;9.88;57.06;100574.45;105757;1251;63242;-59
2023/10/07 03:07:49;;;;;;;11.10;6.00;;;;;;;9.87;57.38;100558.95;105397;1258;60434;-65
2023/10/07 03:10:18;;;;;;;6.30;2.00;;;;;;;9.87;57.52;100549.85;106619;1253;65457;-63
2023/10/07 03:12:56;;;;;;;10.60;5.60;;;;;;;9.86;57.64;100539.00;105807;1257;61346;-61
2023/10/07 03:18:03;;;;;;;11.20;5.40;;;;;;;9.85;57.83;100521.73;105433;1257;60834;-61
2023/10/07 03:20:31;;;;;;;7.60;2.70;;;;;;;9.88;58.02;100512.42;105618;1253;60571;-69
2023/10/07 03:23:15;;;;;;;9.70;5.10;;;;;;;9.96;58.08;100509.95;105506;1254;72251;-63
2023/10/07 03:28:35;;;;;;;11.20;5.60;;;;;;;10.12;58.06;100507.33;105483;1258;64245;-66
2023/10/07 03:31:10;;;;;;;6.90;1.80;;;;;;;10.16;58.12;100505.40;105496;1254;61395;-61
2023/10/07 03:33:45;;;;;;;10.00;5.60;;;;;;;10.19;58.10;100500.23;106865;1256;60358;-59
2023/10/07 03:39:42;;;;;;;10.40;6.30;;;;;;;10.25;58.13;100477.04;105379;1257;61909;-62
2023/10/07 03:41:55;;;;;;;4.00;1.50;;;;;;;10.28;58.10;100469.13;105800;1254;63722;-61
2023/10/07 03:44:25;;;;;;;11.70;6.00;;;;;;;10.34;58.12;100467.63;105614;1255;60473;-65
2023/10/07 03:46:57;;;;;;;11.60;6.00;;;;;;;10.41;57.92;100465.86;105740;1253;60431;-61
2023/10/07 03:49:33;;;;;;;8.20;3.30;;;;;;;10.45;57.98;100464.48;105450;1256;63637;-58
2023/10/07 03:52:07;;;;;;;11.00;6.60;;;;;;;10.46;58.10;100456.01;105611;1256;60434;-59
2023/10/07 03:54:36;;;;;;;5.10;1.70;;;;;;;10.46;58.16;100445.80;105926;1253;63681;-60
2023/10/07 03:57:06;;;;;;;12.30;6.20;;;;;;;10.47;58.20;100443.80;105487;1254;60556;-61
2023/10/07 03:59:34;;;;;;;6.70;2.50;;;;;;;10.49;58.21;100443.98;106163;1250;60581;-62
2023/10/07 04:02:12;;;;;;;14.80;6.10;;;;;;;10.55;58.16;100437.91;105360;1254;64897;-62
2023/10/07 04:04:41;;;;;;;12.50;5.90;;;;;;;10.61;58.12;100435.14;105981;1255;60433;-59
2023/10/07 04:07:12;;;;;;;6.70;2.50;;;;;;;10.66;58.15;100428.45;105997;1256;64331;-63
2023/10/07 04:09:42;;;;;;;12.00;5.90;;;;;;;10.69;58.16;100421.20;105432;1256;60493;-62
2023/10/07 04:12:14;;;;;;;7.60;2.40;;;;;;;10.70;58.10;100416.54;106017;1257;60438;-64
2023/10/07 04:14:42;;;;;;;10.70;5.90;;;;;;;10.70;58.11;100409.02;105925;1251;63699;-59
2023/10/07 04:17:13;;;;;;;10.00;5.30;;;;;;;10.69;58.10;100404.15;105498;1257;68727;-62
2023/10/07 04:19:45;;;;;;;8.60;2.40;;;;;;;10.69;58.06;100394.68;106005;1257;63800;-64
2023/10/07 04:22:13;;;;;;;9.90;5.10;;;;;;;10.73;58.00;100394.95;105349;1254;60572;-60
2023/10/07 04:24:44;;;;;;;11.80;6.60;;;;;;;10.79;57.99;100391.62;105382;1252;60565;-60
2023/10/07 04:27:21;;;;;;;8.40;2.40;;;;;;;10.85;57.96;100380.44;106682;1254;64912;-64
2023/10/07 04:29:51;;;;;;;10.80;5.20;;;;;;;10.88;57.98;100378.64;105752;1254;60573;-62
2023/10/07 04:32:21;;;;;;;10.10;5.90;;;;;;;10.90;57.87;100367.90;105572;1253;62447;-62
2023/10/07 04:35:15;;;;;;;10.30;5.70;;;;;;;10.91;57.95;100357.43;105796;1251;60471;-61
2023/10/07 04:37:55;;;;;;;9.60;2.40;;;;;;;10.92;57.87;100347.23;105822;1254;60322;-64
2023/10/07 04:45:49;;;;;;;5.30;1.60;;;;;;;11.03;57.77;100328.73;105482;1251;63672;-62
2023/10/07 04:51:03;;;;;;;;;;;;;;;11.14;57.51;100319.44;105404;1252;60558;-61
2023/10/07 04:53:39;;;;;;;5.10;1.70;;;;;;;11.17;57.41;100316.40;105414;1252;64999;-60
2023/10/07 04:56:07;;;;;;;13.70;5.40;;;;;;;11.18;57.28;100310.52;106061;1257;61337;-63
2023/10/07 04:58:39;;;;;;;10.70;5.80;;;;;;;11.22;57.29;100310.86;106229;1251;63765;-58
2023/10/07 05:03:58;;;;;;;;;;;;;;;11.36;57.05;100289.98;105534;1258;60584;-62
2023/10/07 05:06:26;;;;;;;8.70;3.70;;;;;;;11.45;56.83;100284.51;105622;1254;64948;-65
2023/10/07 05:08:54;;;;;;;8.50;5.10;;;;;;;11.50;56.73;100289.33;105442;1252;61383;-62
2023/10/07 05:11:26;;;;;;;9.20;5.30;;;;;;;11.55;56.46;100277.73;106376;1254;63802;-62
2023/10/07 05:13:55;;;;;;;7.80;2.60;;;;;;;11.60;56.32;100264.62;105394;1253;60553;-62
2023/10/07 05:16:25;;;;;;;9.30;5.30;;;;;;;11.65;56.36;100261.17;105548;1251;60515;-60
2023/10/07 05:18:52;;;;;;;11.20;4.90;;;;;;;11.70;56.37;100259.20;105626;1256;64933;-61
2023/10/07 05:21:22;;;;;;;10.70;4.90;;;;;;;11.77;56.42;100257.58;105641;1251;61394;-61
2023/10/07 05:23:50;;;;;;;12.20;5.00;;;;;;;11.84;56.43;100251.12;105735;1253;63711;-59
2023/10/07 05:26:18;;;;;;;13.20;4.60;;;;;;;11.95;56.30;100253.14;105451;1251;61695;-57
2023/10/07 05:28:46;;;;;;;4.40;2.10;;;;;;;12.09;56.24;100253.15;106658;1254;61266;-57
2023/10/07 05:31:17;;;;;;;9.00;4.10;;;;;;;12.20;55.97;100246.07;105467;1251;65356;-59
2023/10/07 05:33:45;;;;;;;7.80;4.20;;;;;;;12.27;55.81;100233.64;105839;1251;61299;-60
2023/10/07 05:36:17;;;;;;;8.90;4.80;;;;;;;12.34;55.71;100223.67;105465;1256;63722;-61
2023/10/07 05:38:45;;;;;;;10.40;4.50;;;;;;;12.40;55.62;100225.06;105763;1254;60432;-65
2023/10/07 05:41:14;;;;;;;10.30;5.50;;;;;;;12.43;55.52;100220.20;105339;1256;60499;-62
2023/10/07 05:43:43;;;;;;;8.40;2.60;;;;;;;12.45;55.52;100216.04;105364;1251;64918;-65
2023/10/07 05:46:11;;;;;;;13.90;5.80;;;;;;;12.43;55.56;100215.25;106093;1256;61391;-62
2023/10/07 05:48:40;;;;;;;9.90;4.40;;;;;;;12.45;55.60;100206.83;105951;1254;63763;-61
2023/10/07 05:51:08;;;;;;;8.10;4.40;;;;;;;12.51;55.54;100192.41;106107;1253;60780;-61
2023/10/07 05:53:39;;;;;;;9.70;5.20;;;;;;;12.56;55.37;100193.02;106086;1254;60355;-60
2023/10/07 05:56:07;;;;;;;9.50;5.50;;;;;;;12.59;55.35;100189.44;106125;1250;64991;-62
2023/10/07 05:58:35;;;;;;;11.80;6.20;;;;;;;12.59;55.37;100183.99;106233;1256;60073;-60
2023/10/07 06:01:04;;;;;;;9.90;5.10;;;;;;;12.59;55.35;100175.66;106135;1255;63764;-61
2023/10/07 06:03:32;;;;;;;10.10;5.50;;;;;;;12.59;55.40;100170.42;106188;1252;60421;-64
2023/10/07 06:06:04;;;;;;;13.20;5.50;;;;;;;12.57;55.80;100157.11;105486;1254;60870;-61
2023/10/07 06:08:34;;;;;;;10.80;5.00;;;;;;;12.54;56.02;100156.14;105482;1251;64868;-61
2023/10/07 06:11:04;;;;;;;11.40;4.60;;;;;;;12.55;56.56;100151.99;105427;1251;61381;-64
2023/10/07 06:13:33;;;;;;;13.30;6.00;;;;;;;12.58;56.63;100151.00;106021;1254;64231;-62
2023/10/07 06:16:04;;;;;;;12.10;5.20;;;;;;;12.59;57.02;100150.54;105525;1257;60530;-64
2023/10/07 06:18:34;;;;;;;9.90;5.30;;;;;;;12.59;57.53;100145.59;105962;1256;60351;-64
2023/10/07 06:21:27;;;;;;;10.40;5.30;;;;;;;12.58;57.94;100140.05;105453;1251;63678;-61
2023/10/07 06:24:06;;;;;;;10.00;5.50;;;;;;;12.57;58.29;100148.63;105474;1257;61885;-60
2023/10/07 06:26:36;;;;;;;11.70;5.20;;;;;;;12.58;58.54;100145.02;106294;1251;63727;-60
2023/10/07 06:29:15;;;;;;;9.60;4.80;;;;;;;12.59;58.74;100132.39;105579;1254;60631;-63
2023/10/07 06:31:48;;;;;;;10.20;5.40;;;;;;;12.58;59.11;100127.53;105631;1256;60446;-61
2023/10/07 06:41:11;;;;;;;9.20;5.20;;;;;;;12.57;60.19;100101.45;104094;1290;600363;-93
2023/10/07 06:43:50;;;;;;;13.10;5.30;;;;;;;12.80;59.77;100094.36;105974;1267;59297;-93
2023/10/07 06:46:41;;;;;;;10.60;5.90;;;;;;;12.80;60.02;100086.61;104526;1260;59333;-56
2023/10/07 06:49:20;;;;;;;10.60;5.20;;;;;;;12.77;60.35;100087.27;105727;1259;62111;-56
2023/10/07 06:51:58;;;;;;;10.10;4.80;;;;;;;12.76;60.49;100089.51;104796;1259;61439;-54
2023/10/07 06:54:32;;;;;;;8.80;4.90;;;;;;;12.77;60.57;100097.67;104564;1259;217524;-56
2023/10/07 06:57:04;;;;;;;11.20;5.30;;;;;;;12.75;60.65;100095.54;104681;1259;59267;-55
2023/10/07 06:59:31;;;;;;;10.70;5.30;;;;;;;12.73;61.03;100096.60;104682;1264;60336;-55
2023/10/07 07:02:06;;;;;;;10.90;5.20;;;;;;;12.70;61.04;100091.80;104842;1258;62056;-57
2023/10/07 07:04:35;;;;;;;9.10;5.00;;;;;;;12.71;61.26;100085.73;108801;1257;61405;-56
2023/10/07 07:07:10;;;;;;;8.70;4.70;;;;;;;12.75;61.27;100080.76;108733;1257;64363;-61
2023/10/07 07:09:50;;;;;;;8.40;5.10;;;;;;;12.81;61.38;100081.25;106768;1261;59776;-56
2023/10/07 07:12:21;;;;;;;8.10;5.00;;;;;;;12.85;61.44;100077.35;104889;1262;59562;-54
2023/10/07 07:15:04;;;;;;;8.60;4.80;;;;;;;12.86;61.51;100075.67;104939;1257;72185;-55
2023/10/07 07:17:35;;;;;;;9.90;4.60;;;;;;;12.86;61.34;100079.73;105120;1259;61497;-55
2023/10/07 07:22:42;;;;;;;10.20;5.20;;;;;;;12.94;61.31;100069.14;105894;1260;59594;-57
2023/10/07 07:25:12;;;;;;;9.70;4.80;;;;;;;12.97;61.39;100067.44;105038;1262;59657;-55
2023/10/07 07:27:45;;;;;;;11.60;5.00;;;;;;;12.98;61.56;100062.20;105104;1259;62967;-55
2023/10/07 07:30:19;;;;;;;10.10;4.40;;;;;;;12.98;61.77;100059.59;104768;1264;63606;-55
2023/10/07 07:32:55;;;;;;;9.20;3.90;;;;;;;13.02;61.75;100054.48;105753;1258;64221;-55
2023/10/07 07:35:38;;;;;;;9.00;4.20;;;;;;;13.08;61.55;100045.39;106150;1259;59807;-55
2023/10/07 07:41:05;;;;;;;10.00;4.80;;;;;;;13.11;61.60;100012.02;104786;1257;64360;-54
2023/10/07 07:43:38;;;;;;;10.10;4.40;;;;;;;13.09;61.53;100009.73;105230;1257;61371;-55
2023/10/07 07:46:26;;;;;;;12.40;4.50;;;;;;;13.10;61.86;100012.49;104805;1259;63838;-57
2023/10/07 07:49:08;;;;;;;12.10;4.10;;;;;;;13.14;61.90;100011.96;105325;1260;59865;-55
2023/10/07 07:51:43;;;;;;;8.60;4.20;;;;;;;13.14;62.15;99999.77;105096;1259;59803;-55
2023/10/07 07:54:11;;;;;;;7.30;3.80;;;;;;;13.12;62.16;99999.04;105068;1262;64162;-55
2023/10/07 07:56:42;;;;;;;9.80;3.60;;;;;;;13.12;62.49;99993.26;104985;1258;61406;-55
2023/10/07 07:59:17;;;;;;;8.80;4.00;;;;;;;13.15;62.52;99998.25;104865;1260;64388;-55
2023/10/07 08:01:52;;;;;;;9.80;3.90;;;;;;;13.17;62.50;99992.91;104993;1259;59685;-56
2023/10/07 08:10:03;;;;;;;10.10;4.40;;;;;;;13.15;63.38;100002.11;104865;1259;61901;-56
2023/10/07 08:12:36;;;;;;;8.60;4.30;;;;;;;13.16;63.54;99986.54;105163;1260;63805;-55
2023/10/07 08:17:50;;;;;;;10.10;4.40;;;;;;;13.17;64.29;99991.16;105173;1260;59692;-55
2023/10/07 08:20:34;;;;;;;10.40;4.20;;;;;;;13.15;64.73;99984.56;104836;1257;64200;-56
2023/10/07 08:23:13;;;;;;;9.30;3.80;;;;;;;13.12;65.13;99960.84;105239;1262;61390;-56
2023/10/07 08:25:47;;;;;;;9.60;4.10;;;;;;;13.16;65.26;99964.04;104922;1260;64364;-57
2023/10/07 08:28:18;;;;;;;10.40;4.10;;;;;;;13.18;65.31;99955.81;104977;1259;59750;-56
2023/10/07 08:30:49;;;;;;;7.70;4.00;;;;;;;13.22;65.63;99951.78;106422;1259;59760;-57
2023/10/07 08:33:23;;;;;;;8.40;4.00;;;;;;;13.26;65.57;99945.84;104797;1257;62827;-57
2023/10/07 08:35:53;;;;;;;10.30;4.20;;;;;;;13.27;65.72;99938.16;105478;1258;62491;-57
2023/10/07 08:38:29;;;;;;;11.90;4.40;;;;;;;13.26;65.68;99923.19;105287;1260;63790;-58
2023/10/07 08:41:04;;;;;;;8.20;4.00;;;;;;;13.32;65.62;99916.52;106164;1260;59793;-57
2023/10/07 08:43:48;;;;;;;10.00;3.90;;;;;;;13.38;65.56;99920.25;104924;1262;59721;-57
2023/10/07 08:46:16;;;;;;;9.90;3.50;;;;;;;13.42;65.35;99919.92;105509;1263;64126;-56
2023/10/07 08:48:50;;;;;;;8.00;3.90;;;;;;;13.43;65.48;99898.73;104989;1259;61887;-56
2023/10/07 08:51:21;;;;;;;11.80;4.90;;;;;;;13.42;65.63;99890.67;104835;1260;63754;-56
2023/10/07 08:53:49;;;;;;;12.40;4.50;;;;;;;13.41;65.79;99887.23;105566;1259;59696;-56
2023/10/07 08:56:18;;;;;;;8.90;3.60;;;;;;;13.44;65.76;99879.86;104657;1265;59575;-55
2023/10/07 08:58:49;;;;;;;6.80;3.60;;;;;;;13.50;65.40;99872.40;106456;1261;64577;-54
2023/10/07 09:01:19;;;;;;;8.40;3.90;;;;;;;13.54;65.28;99853.56;104874;1262;60925;-54
2023/10/07 09:03:48;;;;;;;12.40;4.90;;;;;;;13.55;65.36;99846.91;105519;1259;64317;-54
2023/10/07 09:06:16;;;;;;;9.50;4.10;;;;;;;13.56;65.25;99841.69;104901;1261;59760;-54
2023/10/07 09:08:44;;;;;;;8.40;3.90;;;;;;;13.58;65.19;99841.30;105023;1259;59667;-56
2023/10/07 09:11:19;;;;;;;8.10;3.90;;;;;;;13.64;65.00;99838.50;104998;1259;64776;-56
2023/10/07 09:13:48;;;;;;;6.30;3.30;;;;;;;13.71;64.90;99839.11;104940;1265;61588;-57
2023/10/07 09:16:21;;;;;;;7.70;4.00;;;;;;;13.81;64.67;99827.92;104700;1259;63808;-55
2023/10/07 09:18:55;;;;;;;9.30;4.30;;;;;;;13.88;64.00;99835.30;105565;1260;61091;-55
2023/10/07 09:21:28;;;;;;;8.90;4.20;;;;;;;13.94;63.73;99838.66;105396;1263;59648;-55
2023/10/07 09:24:03;;;;;;;9.00;4.10;;;;;;;14.00;63.08;99838.25;105339;1263;64152;-54
2023/10/07 09:26:33;;;;;;;9.90;4.10;;;;;;;14.05;62.72;99835.84;106063;1259;61433;-55
2023/10/07 09:29:15;;;;;;;7.80;3.40;;;;;;;14.14;62.17;99829.63;104918;1263;62685;-55
2023/10/07 09:31:43;;;;;;;9.90;4.20;;;;;;;14.23;62.01;99827.11;104925;1261;59773;-56
2023/10/07 09:34:11;;;;;;;8.90;4.40;;;;;;;14.28;61.43;99821.77;105062;1257;59645;-56
2023/10/07 09:36:43;;;;;;;7.20;3.70;;;;;;;14.32;61.25;99811.16;104875;1259;64152;-56
2023/10/07 09:39:33;;;;;;;10.20;3.60;;;;;;;14.36;60.89;99800.52;105080;1264;62393;-55
2023/10/07 09:42:05;;;;;;;8.20;4.40;;;;;;;14.44;60.62;99789.91;104748;1260;63798;-56
2023/10/07 09:44:37;;;;;;;9.90;4.10;;;;;;;14.54;60.15;99793.34;105491;1260;59942;-56
2023/10/07 09:47:14;;;;;;;9.10;3.90;;;;;;;14.65;58.84;99809.65;105205;1264;59704;-56
2023/10/07 09:49:44;;;;;;;10.80;4.20;;;;;;;14.75;58.76;99786.16;104940;1260;64141;-55
2023/10/07 09:52:16;;;;;;;10.60;4.70;;;;;;;14.81;58.28;99771.06;105112;1259;61353;-56
2023/10/07 09:55:18;;;;;;;10.80;4.60;;;;;;;14.85;58.33;99773.41;104852;1264;62540;-56
2023/10/07 09:58:01;;;;;;;8.90;4.80;;;;;;;14.89;57.64;99782.25;104925;1259;59754;-54
2023/10/07 10:00:42;;;;;;;10.30;5.10;;;;;;;14.91;57.48;99761.52;105292;1259;59782;-56
2023/10/07 10:03:30;;;;;;;12.40;5.10;;;;;;;14.93;57.71;99753.35;105154;1259;64746;-55
2023/10/07 10:10:31;;;;;;;10.00;5.10;;;;;;;14.94;58.35;99751.45;104512;1288;600656;-93
2023/10/07 10:18:45;;;;;;;13.10;5.30;;;;;;;15.19;58.12;99724.89;108775;1260;62588;-92
2023/10/07 10:21:14;;;;;;;9.60;4.50;;;;;;;15.33;57.95;99711.38;105521;1258;73496;-56
2023/10/07 10:23:44;;;;;;;9.10;5.20;;;;;;;15.48;57.63;99706.89;104859;1262;212271;-56
2023/10/07 10:26:20;;;;;;;10.30;5.10;;;;;;;15.59;56.93;99697.66;105108;1258;59320;-56
2023/10/07 10:29:15;;;;;;;10.10;5.00;;;;;;;15.68;56.40;99689.27;105405;1258;58864;-55
2023/10/07 10:31:50;;;;;;;11.80;5.10;;;;;;;15.78;55.82;99676.11;105280;1261;63281;-55
2023/10/07 10:34:20;;;;;;;13.10;4.70;;;;;;;15.86;55.01;99669.94;105123;1263;60223;-55
2023/10/07 10:36:50;;;;;;;8.20;4.50;;;;;;;15.93;54.55;99659.10;105393;1257;63758;-54
2023/10/07 10:39:25;;;;;;;9.80;4.20;;;;;;;16.02;54.11;99650.11;105082;1258;60437;-54
2023/10/07 10:42:09;;;;;;;10.00;4.60;;;;;;;16.11;53.92;99644.61;105162;1261;59810;-56
2023/10/07 10:44:38;;;;;;;7.90;4.50;;;;;;;16.19;53.85;99637.83;105509;1257;63002;-56
2023/10/07 10:47:07;;;;;;;7.90;4.20;;;;;;;16.27;53.54;99630.36;105888;1258;61370;-56
2023/10/07 10:49:35;;;;;;;9.40;4.10;;;;;;;16.35;52.99;99623.59;105571;1258;62491;-56
2023/10/07 10:52:04;;;;;;;9.50;4.10;;;;;;;16.44;52.81;99617.05;105113;1260;59654;-57
2023/10/07 10:54:32;;;;;;;8.30;4.30;;;;;;;16.52;52.49;99619.85;105047;1262;59751;-56
2023/10/07 10:57:00;;;;;;;8.80;3.90;;;;;;;16.60;51.76;99616.98;105080;1263;64657;-56
2023/10/07 10:59:42;;;;;;;8.70;3.50;;;;;;;16.69;51.75;99621.09;105042;1258;69917;-56
2023/10/07 11:02:11;;;;;;;7.70;3.80;;;;;;;16.76;51.17;99619.65;105326;1262;62548;-56
2023/10/07 11:04:40;;;;;;;9.10;4.30;;;;;;;16.84;51.08;99617.86;105635;1257;59699;-58
2023/10/07 11:07:08;;;;;;;9.90;4.10;;;;;;;16.91;50.61;99613.71;105689;1258;59744;-55
2023/10/07 11:09:38;;;;;;;11.00;4.40;;;;;;;16.97;50.46;99612.79;104977;1258;62830;-54
2023/10/07 11:12:09;;;;;;;9.50;4.00;;;;;;;17.04;49.84;99611.95;105704;1261;60259;-56
2023/10/07 11:14:38;;;;;;;9.80;4.10;;;;;;;17.11;49.92;99609.91;104919;1257;63865;-55
2023/10/07 11:17:09;;;;;;;8.40;3.70;;;;;;;17.16;49.64;99608.42;105576;1263;59302;-56
2023/10/07 11:19:44;;;;;;;8.30;3.80;;;;;;;17.21;49.65;99603.01;105685;1260;59575;-56
2023/10/07 11:22:19;;;;;;;8.10;3.90;;;;;;;17.26;49.56;99604.00;105347;1257;64628;-57
2023/10/07 11:24:50;;;;;;;8.90;4.30;;;;;;;17.31;49.77;99595.10;105430;1261;61401;-57
2023/10/07 11:27:19;;;;;;;7.40;3.80;;;;;;;17.35;49.94;99587.58;105426;1257;64300;-56
2023/10/07 11:29:57;;;;;;;8.10;3.50;;;;;;;17.38;50.02;99586.40;105129;1258;59735;-56
2023/10/07 11:32:33;;;;;;;7.30;3.30;;;;;;;17.42;50.13;99581.29;105174;1257;59559;-56
2023/10/07 11:35:02;;;;;;;7.10;3.90;;;;;;;17.47;50.18;99580.60;105753;1257;64165;-56
2023/10/07 11:37:32;;;;;;;9.00;3.80;;;;;;;17.51;49.98;99585.61;105075;1257;61404;-57
2023/10/07 11:40:01;;;;;;;12.90;3.60;;;;;;;17.56;49.90;99583.98;105175;1261;62607;-56
2023/10/07 11:42:29;;;;;;;8.60;3.80;;;;;;;17.61;49.89;99584.93;105824;1257;59683;-54
2023/10/07 11:44:57;;;;;;;12.10;3.80;;;;;;;17.67;49.49;99588.30;105026;1261;59671;-56
2023/10/07 11:47:26;;;;;;;8.90;3.90;;;;;;;17.74;49.22;99596.26;105107;1261;64082;-55
2023/10/07 11:49:54;;;;;;;8.50;3.80;;;;;;;17.83;49.23;99578.09;105211;1260;61395;-56
2023/10/07 11:52:23;;;;;;;12.20;3.70;;;;;;;17.92;49.31;99576.39;106073;1256;62573;-56
2023/10/07 11:54:51;;;;;;;6.90;3.30;;;;;;;17.96;49.28;99582.58;105053;1259;59748;-56
2023/10/07 11:57:19;;;;;;;10.20;4.10;;;;;;;18.00;49.46;99586.54;105234;1257;60219;-56
2023/10/07 11:59:46;;;;;;;9.80;3.50;;;;;;;18.04;49.29;99582.69;105115;1260;64216;-56
2023/10/07 12:02:17;;;;;;;8.50;3.60;;;;;;;18.08;49.19;99582.15;105422;1257;61475;-57
2023/10/07 12:04:47;;;;;;;8.50;3.50;;;;;;;18.13;49.15;99598.98;105142;1257;62615;-58
2023/10/07 12:07:16;;;;;;;8.90;3.80;;;;;;;18.19;49.17;99591.66;105632;1261;59643;-56
2023/10/07 12:09:48;;;;;;;8.60;3.10;;;;;;;18.23;49.25;99591.32;105288;1262;59688;-56
2023/10/07 12:12:17;;;;;;;9.20;3.90;;;;;;;18.27;49.49;99597.75;105137;1258;63036;-57
2023/10/07 12:14:47;;;;;;;8.40;3.20;;;;;;;18.31;49.36;99599.63;105442;1260;61452;-57
2023/10/07 12:17:16;;;;;;;8.90;3.70;;;;;;;18.33;49.76;99599.67;105496;1258;63771;-56
2023/10/07 12:19:44;;;;;;;9.20;3.10;;;;;;;18.34;49.66;99594.16;105111;1263;60329;-56
2023/10/07 12:22:13;;;;;;;10.50;3.20;;;;;;;18.36;49.83;99602.30;104966;1257;59583;-55
2023/10/07 12:24:46;;;;;;;10.90;3.20;;;;;;;18.35;49.97;99593.11;104962;1262;64587;-56
2023/10/07 12:27:13;;;;;;;9.30;3.50;;;;;;;18.37;50.17;99587.89;105387;1258;61390;-54
2023/10/07 12:29:41;;;;;;;10.10;2.90;;;;;;;18.35;50.59;99596.42;105070;1262;62740;-58
2023/10/07 12:32:09;;;;;;;7.30;3.00;;;;;;;18.30;50.97;99594.63;105100;1257;61263;-58
2023/10/07 12:34:40;;;;;;;13.20;3.00;;;;;;;18.29;51.27;99575.89;105614;1260;60378;-56
2023/10/07 12:37:08;;;;;;;9.70;2.70;;;;;;;18.27;51.45;99570.51;105532;1257;62924;-56
2023/10/07 12:39:39;;;;;;;9.60;3.00;;;;;;;18.27;51.59;99568.46;105538;1257;61367;-54
2023/10/07 12:42:07;;;;;;;8.00;3.00;;;;;;;18.24;51.70;99569.83;105579;1258;62490;-53
2023/10/07 12:44:35;;;;;;;7.00;2.60;;;;;;;18.23;51.87;99564.48;105131;1257;59729;-54
2023/10/07 12:47:08;;;;;;;10.10;3.40;;;;;;;18.22;51.81;99566.00;105728;1258;59578;-58
2023/10/07 12:49:40;;;;;;;10.60;2.90;;;;;;;18.22;51.99;99566.09;105637;1257;62985;-56